Time;durP1;ratioP1;P1;durP2;ratioP2;P2;SDS_P1;SDS_P2;PMS_P1;PMS_P2;Temp;Humidity;BMP_temperature;BMP_pressure;BME280_temperature;BME280_humidity;BME280_pressure;Samples;Min_cycle;Max_cycle;Signal;HPM_P1;HPM_P2
2022/01/16 00:05:03;;;;;;;;;;;;;;;3.88;100.00;101604.31;5095506;28;20453;-53
2022/01/16 00:07:32;;;;;;;22.17;7.72;;;;;;;3.93;100.00;101623.47;5094361;28;20278;-53
2022/01/16 00:10:01;;;;;;;20.35;7.97;;;;;;;3.91;100.00;101631.38;5094296;28;20072;-53
2022/01/16 00:12:30;;;;;;;21.25;7.93;;;;;;;4.00;100.00;101634.75;5094046;28;20135;-53
2022/01/16 00:14:58;;;;;;;17.88;8.32;;;;;;;3.96;100.00;101633.94;5093801;28;20052;-53
2022/01/16 00:17:28;;;;;;;22.02;8.15;;;;;;;3.97;100.00;101643.56;5094000;28;20059;-53
2022/01/16 00:19:56;;;;;;;24.25;9.25;;;;;;;3.96;100.00;101649.69;5094855;28;20064;-53
2022/01/16 00:22:27;;;;;;;23.85;9.32;;;;;;;4.02;100.00;101643.50;5094191;28;20445;-53
2022/01/16 00:24:58;;;;;;;15.55;6.65;;;;;;;4.04;100.00;101653.06;5093952;28;20052;-53
2022/01/16 00:27:27;;;;;;;23.50;9.02;;;;;;;4.03;100.00;101656.56;5094441;28;20051;-53
2022/01/16 00:29:55;;;;;;;24.92;8.65;;;;;;;4.05;100.00;101654.81;5093894;28;20056;-53
2022/01/16 00:32:23;;;;;;;27.13;8.93;;;;;;;4.00;100.00;101645.25;5094926;28;20056;-53
2022/01/16 00:34:51;;;;;;;22.05;8.93;;;;;;;4.04;100.00;101636.44;5094673;28;20410;-53
2022/01/16 00:37:20;;;;;;;21.58;8.63;;;;;;;4.05;100.00;101635.53;5094396;28;20519;-53
2022/01/16 00:39:48;;;;;;;27.70;9.23;;;;;;;3.98;100.00;101620.78;5094057;28;20056;-53
2022/01/16 00:42:17;;;;;;;25.00;8.90;;;;;;;4.06;100.00;101627.63;5093941;28;20056;-53
2022/01/16 00:44:45;;;;;;;23.50;8.43;;;;;;;4.04;100.00;101631.19;5093888;28;21694;-53
2022/01/16 00:47:14;;;;;;;28.08;9.18;;;;;;;4.04;100.00;101616.31;5093763;28;20143;-53
2022/01/16 00:49:43;;;;;;;24.33;8.98;;;;;;;4.04;100.00;101626.81;5094311;28;20411;-53
2022/01/16 00:52:11;;;;;;;22.92;9.00;;;;;;;4.01;100.00;101605.84;5093619;28;20052;-53
2022/01/16 00:54:39;;;;;;;24.73;9.65;;;;;;;3.95;100.00;101629.59;5094583;28;20056;-53
2022/01/16 00:57:08;;;;;;;25.48;9.52;;;;;;;3.98;100.00;101616.38;5093955;28;20062;-53
2022/01/16 00:59:37;;;;;;;25.02;9.90;;;;;;;3.93;100.00;101594.59;5093868;28;20075;-53
2022/01/16 01:02:05;;;;;;;26.58;9.68;;;;;;;4.00;100.00;101604.13;5093570;28;20056;-53
2022/01/16 01:04:34;;;;;;;23.90;9.10;;;;;;;4.02;100.00;101610.22;5094118;28;20059;-53
2022/01/16 01:07:02;;;;;;;29.30;10.35;;;;;;;4.13;100.00;101614.41;5093548;28;20556;-53
2022/01/16 01:09:30;;;;;;;25.80;10.63;;;;;;;4.17;100.00;101601.22;5094366;28;20056;-53
2022/01/16 01:11:58;;;;;;;24.95;10.00;;;;;;;4.21;100.00;101591.50;5097126;28;20056;-53
2022/01/16 01:14:38;;;;;;;29.20;10.00;;;;;;;4.25;100.00;101629.94;5097115;28;20056;-53
2022/01/16 01:17:10;;;;;;;30.15;10.25;;;;;;;4.24;100.00;101633.47;5097775;28;20063;-53
2022/01/16 01:19:38;;;;;;;27.13;10.50;;;;;;;4.31;100.00;101647.38;5098180;28;20052;-53
2022/01/16 01:22:07;;;;;;;31.17;10.15;;;;;;;4.36;100.00;101633.25;5097282;28;20126;-53
2022/01/16 01:24:36;;;;;;;25.02;10.02;;;;;;;4.44;100.00;101630.50;5098025;28;20395;-53
2022/01/16 01:27:12;;;;;;;25.92;10.50;;;;;;;4.44;100.00;101493.88;5096799;28;20056;-53
2022/01/16 01:29:46;;;;;;;30.08;11.90;;;;;;;4.46;100.00;101540.22;5097988;28;20056;-53
2022/01/16 01:32:16;;;;;;;27.83;9.45;;;;;;;4.46;100.00;101573.50;5097050;28;20438;-53
2022/01/16 01:34:44;;;;;;;27.08;10.63;;;;;;;4.49;100.00;101554.19;5097290;28;20051;-53
2022/01/16 01:37:12;;;;;;;23.25;9.80;;;;;;;4.51;100.00;101544.53;5096935;28;20056;-53
2022/01/16 01:39:41;;;;;;;31.98;10.95;;;;;;;4.50;100.00;101600.59;5096535;28;20048;-53
2022/01/16 01:42:11;;;;;;;28.05;11.32;;;;;;;4.53;100.00;101601.41;5096504;28;20058;-53
2022/01/16 01:53:01;;;;;;;28.30;10.27;;;;;;;4.45;100.00;101633.09;5096976;28;20064;-53
2022/01/16 01:55:29;;;;;;;25.77;10.13;;;;;;;4.42;100.00;101633.16;5096345;28;20063;-53
2022/01/16 01:57:58;;;;;;;24.67;10.68;;;;;;;4.47;100.00;101656.69;5096573;28;20056;-53
2022/01/16 02:00:26;;;;;;;26.83;9.77;;;;;;;4.43;100.00;101619.09;5096532;28;20052;-53
2022/01/16 02:03:12;;;;;;;22.25;9.85;;;;;;;4.46;100.00;101626.06;5096687;28;20063;-53
2022/01/16 02:05:42;;;;;;;23.85;9.88;;;;;;;4.45;100.00;101643.59;5097247;28;20058;-53
2022/01/16 02:08:11;;;;;;;29.48;9.73;;;;;;;4.55;100.00;101632.91;5096299;28;20058;-53
2022/01/16 02:10:40;;;;;;;26.17;9.98;;;;;;;4.53;100.00;101645.22;5096551;28;20062;-53
2022/01/16 02:13:12;;;;;;;21.83;9.18;;;;;;;4.53;100.00;101651.31;5096469;28;20060;-53
2022/01/16 02:32:40;;;;;;;22.52;9.75;;;;;;;4.34;100.00;101671.81;5083015;28;20064;-53
2022/01/16 02:35:08;;;;;;;23.35;9.05;;;;;;;4.38;100.00;101670.84;5095233;28;20056;-53
2022/01/16 02:37:36;;;;;;;28.17;9.93;;;;;;;4.39;100.00;101664.72;5095768;28;20059;-53
2022/01/16 02:40:15;;;;;;;23.60;9.98;;;;;;;4.42;100.00;101661.16;5095420;28;20063;-54
2022/01/16 02:42:49;;;;;;;25.70;9.93;;;;;;;4.47;100.00;101689.09;5078454;28;20052;-53
2022/01/16 02:45:28;;;;;;;22.42;9.00;;;;;;;4.51;100.00;101668.03;5096191;28;20074;-53
2022/01/16 02:48:00;;;;;;;24.23;9.27;;;;;;;4.59;100.00;101667.00;5095043;28;20060;-53
2022/01/16 02:50:28;;;;;;;22.38;9.30;;;;;;;4.60;100.00;101652.06;5096418;28;20058;-53
2022/01/16 02:52:57;;;;;;;28.10;10.30;;;;;;;4.57;100.00;101657.38;5095132;28;20051;-53
2022/01/16 02:55:27;;;;;;;24.67;9.30;;;;;;;4.57;100.00;101636.34;5094922;28;20059;-53
2022/01/16 02:57:56;;;;;;;27.63;10.00;;;;;;;4.58;100.00;101644.22;5095937;28;20056;-53
2022/01/16 03:00:24;;;;;;;20.60;8.50;;;;;;;4.63;100.00;101652.03;5095007;28;20063;-53
2022/01/16 03:02:53;;;;;;;28.13;10.13;;;;;;;4.62;100.00;101648.53;5095440;28;20055;-53
2022/01/16 03:05:21;;;;;;;23.30;9.15;;;;;;;4.68;100.00;101658.06;5095517;28;20056;-53
2022/01/16 03:07:50;;;;;;;33.10;10.63;;;;;;;4.68;100.00;101644.91;5095559;28;20078;-53
2022/01/16 03:10:38;;;;;;;28.80;10.90;;;;;;;4.73;100.00;101637.81;5095160;28;20074;-53
2022/01/16 03:13:08;;;;;;;27.65;10.18;;;;;;;4.78;100.00;101630.69;5095010;28;20438;-53
2022/01/16 03:15:38;;;;;;;23.65;9.07;;;;;;;4.82;100.00;101642.00;5095450;28;20063;-53
2022/01/16 03:23:43;;;;;;;24.58;9.13;;;;;;;4.84;100.00;101630.56;5095060;28;20306;-53
2022/01/16 03:26:11;;;;;;;23.70;9.60;;;;;;;4.90;100.00;101629.56;5094400;28;20056;-53
2022/01/16 03:28:41;;;;;;;29.95;8.43;;;;;;;4.95;100.00;101629.47;5094625;28;20056;-53
2022/01/16 03:31:09;;;;;;;23.40;9.43;;;;;;;4.92;100.00;101626.91;5094861;28;20066;-53
2022/01/16 03:33:37;;;;;;;23.63;9.07;;;;;;;4.96;100.00;101628.56;5094242;28;20068;-53
2022/01/16 03:36:06;;;;;;;23.98;8.95;;;;;;;4.96;100.00;101633.81;5094222;28;20051;-53
2022/01/16 03:38:34;;;;;;;23.88;9.88;;;;;;;4.94;100.00;101646.16;5094394;28;20063;-53
2022/01/16 03:41:02;;;;;;;32.20;9.77;;;;;;;4.95;100.00;101635.59;5095563;28;20392;-53
2022/01/16 03:43:30;;;;;;;25.30;8.95;;;;;;;4.96;100.00;101633.81;5094716;28;20431;-53
2022/01/16 03:46:01;;;;;;;23.95;9.70;;;;;;;4.96;100.00;101639.09;5094428;28;20052;-53
2022/01/16 03:48:29;;;;;;;25.90;9.52;;;;;;;4.98;100.00;101637.31;5094054;28;20059;-53
2022/01/16 03:50:57;;;;;;;27.85;10.23;;;;;;;4.98;100.00;101645.19;5094266;28;20056;-53
2022/01/16 03:53:25;;;;;;;23.58;9.48;;;;;;;4.99;100.00;101633.78;5095341;28;20483;-53
2022/01/16 03:55:54;;;;;;;20.65;9.25;;;;;;;4.99;100.00;101641.66;5093994;28;20064;-53
2022/01/16 03:58:22;;;;;;;18.70;8.68;;;;;;;5.03;100.00;101648.59;5094511;28;20060;-53
2022/01/16 04:00:50;;;;;;;23.27;8.55;;;;;;;5.04;100.00;101647.69;5095040;28;20130;-53
2022/01/16 04:03:20;;;;;;;22.38;8.75;;;;;;;5.05;100.00;101649.44;5094132;28;20092;-53
2022/01/16 04:05:48;;;;;;;24.70;9.02;;;;;;;5.10;100.00;101647.56;5093832;28;20056;-53
2022/01/16 04:08:16;;;;;;;24.75;9.75;;;;;;;5.04;100.00;101652.94;5094093;28;20052;-53
2022/01/16 04:10:44;;;;;;;23.58;8.75;;;;;;;5.07;100.00;101642.38;5094629;28;20058;-53
2022/01/16 04:13:13;;;;;;;21.45;8.75;;;;;;;5.09;100.00;101656.34;5094414;28;20118;-53
2022/01/16 04:15:41;;;;;;;24.40;9.10;;;;;;;5.08;100.00;101633.59;5093810;28;20067;-53
2022/01/16 04:18:09;;;;;;;26.38;8.75;;;;;;;5.07;100.00;101634.47;5094003;28;20060;-53
2022/01/16 04:20:39;;;;;;;23.17;8.80;;;;;;;5.11;100.00;101632.63;5094020;28;20511;-53
2022/01/16 04:23:10;;;;;;;21.15;8.45;;;;;;;5.04;100.00;101629.28;5093953;28;20580;-53
2022/01/16 04:25:38;;;;;;;23.38;9.30;;;;;;;5.00;100.00;101622.38;5095081;28;20138;-53
2022/01/16 04:28:06;;;;;;;21.88;8.82;;;;;;;5.04;100.00;101621.38;5093891;28;20056;-53
2022/01/16 04:30:35;;;;;;;19.45;9.32;;;;;;;5.05;100.00;101612.59;5094446;28;20071;-53
2022/01/16 04:33:04;;;;;;;21.73;9.38;;;;;;;5.06;100.00;101616.97;5094200;28;20052;-53
2022/01/16 04:35:32;;;;;;;21.20;9.05;;;;;;;5.07;100.00;101605.53;5094345;28;20056;-53
2022/01/16 04:38:01;;;;;;;19.95;8.48;;;;;;;5.06;100.00;101598.56;5094168;28;20078;-53
2022/01/16 04:40:41;;;;;;;18.95;8.95;;;;;;;5.10;100.00;101589.69;5094496;28;20052;-53
2022/01/16 04:45:58;;;;;;;21.52;8.50;;;;;;;5.12;100.00;101608.09;5096210;28;20135;-53
2022/01/16 04:48:26;;;;;;;20.30;9.07;;;;;;;5.10;100.00;101584.44;5098194;28;20091;-53
2022/01/16 04:50:55;;;;;;;17.23;8.88;;;;;;;5.12;100.00;101606.31;5097491;28;20515;-53
2022/01/16 04:53:24;;;;;;;21.20;8.80;;;;;;;5.14;100.00;101601.88;5097815;28;20056;-53
2022/01/16 04:55:53;;;;;;;19.63;9.13;;;;;;;5.13;100.00;101613.31;5098347;28;20055;-53
2022/01/16 04:58:22;;;;;;;20.25;8.52;;;;;;;5.13;100.00;101605.41;5098061;28;20052;-53
2022/01/16 05:00:54;;;;;;;21.20;8.93;;;;;;;5.11;100.00;101601.06;5098303;28;20052;-53
2022/01/16 05:03:24;;;;;;;22.02;8.63;;;;;;;5.09;100.00;101622.16;5098548;28;20403;-53
2022/01/16 05:05:52;;;;;;;18.73;8.73;;;;;;;5.09;100.00;101619.53;5096979;28;20052;-53
2022/01/16 05:08:21;;;;;;;19.58;8.60;;;;;;;5.11;100.00;101615.13;5097584;28;20387;-53
2022/01/16 05:10:54;;;;;;;19.70;8.70;;;;;;;5.07;100.00;101613.44;5097189;28;20052;-53
2022/01/16 05:16:34;;;;;;;18.92;8.45;;;;;;;5.10;100.00;101623.91;5098331;28;20437;-53
2022/01/16 05:16:35;;;;;;;18.30;8.30;;;;;;;5.10;100.00;101637.03;5096828;28;20534;-53
2022/01/16 05:19:08;;;;;;;17.75;8.07;;;;;;;5.12;100.00;101635.25;5097983;28;20056;-53
2022/01/16 05:21:37;;;;;;;20.83;8.90;;;;;;;5.13;100.00;101636.13;5096781;28;20056;-53
2022/01/16 05:24:10;;;;;;;19.90;8.10;;;;;;;5.09;100.00;101647.59;5096910;28;20534;-53
2022/01/16 05:26:41;;;;;;;19.83;7.25;;;;;;;5.12;100.00;101653.66;5096553;28;20058;-53
2022/01/16 05:29:10;;;;;;;17.77;8.55;;;;;;;5.11;100.00;101644.03;5098578;28;20387;-53
2022/01/16 05:31:44;;;;;;;20.70;8.75;;;;;;;5.10;100.00;101633.56;5097203;28;20056;-53
2022/01/16 05:34:13;;;;;;;17.50;8.32;;;;;;;5.09;100.00;101635.31;5096500;28;20117;-53
2022/01/16 05:36:41;;;;;;;18.00;7.75;;;;;;;5.09;100.00;101647.59;5097108;28;20057;-53
2022/01/16 05:39:10;;;;;;;17.27;7.72;;;;;;;5.09;100.00;101656.34;5096986;28;20087;-53
2022/01/16 05:41:38;;;;;;;17.13;8.00;;;;;;;5.11;100.00;101651.94;5096866;28;20052;-53
2022/01/16 05:44:08;;;;;;;18.42;7.60;;;;;;;5.12;100.00;101656.28;5096850;28;20055;-53
2022/01/16 05:46:36;;;;;;;18.00;8.23;;;;;;;5.13;100.00;101667.69;5097308;28;20062;-53
2022/01/16 05:49:05;;;;;;;18.10;8.50;;;;;;;5.17;100.00;101664.94;5096414;28;20060;-53
2022/01/16 05:51:33;;;;;;;19.13;8.60;;;;;;;5.14;100.00;101659.75;5096400;28;20071;-53
2022/01/16 05:54:01;;;;;;;15.60;7.57;;;;;;;5.15;100.00;101669.38;5097472;28;20403;-53
2022/01/16 05:56:29;;;;;;;18.52;7.60;;;;;;;5.17;100.00;101651.78;5096696;28;20067;-53
2022/01/16 05:58:57;;;;;;;17.55;6.95;;;;;;;5.16;100.00;101657.06;5096212;28;20062;-53
2022/01/16 06:01:27;;;;;;;15.80;8.00;;;;;;;5.17;100.00;101664.09;5096138;28;20059;-53
2022/01/16 06:03:55;;;;;;;12.45;6.55;;;;;;;5.20;100.00;101677.19;5096760;28;20123;-53
2022/01/16 06:06:24;;;;;;;16.48;7.05;;;;;;;5.20;100.00;101679.81;5095780;28;20055;-53
2022/01/16 06:08:52;;;;;;;15.05;7.40;;;;;;;5.16;100.00;101684.28;5096375;28;20056;-53
2022/01/16 06:11:25;;;;;;;16.02;7.20;;;;;;;5.13;100.00;101692.22;5096899;28;20082;-53
2022/01/16 06:13:54;;;;;;;14.55;7.47;;;;;;;5.14;100.00;101691.31;5095951;28;20056;-53
2022/01/16 06:16:22;;;;;;;16.77;7.93;;;;;;;5.14;100.00;101699.19;5096494;28;20067;-53
2022/01/16 06:18:53;;;;;;;18.48;7.47;;;;;;;5.17;100.00;101701.75;5096152;28;20090;-53
2022/01/16 06:21:21;;;;;;;15.40;7.67;;;;;;;5.15;100.00;101714.09;5095562;28;20143;-53
2022/01/16 06:23:49;;;;;;;16.95;7.43;;;;;;;5.12;100.00;101701.00;5095754;28;20282;-53
2022/01/16 06:26:18;;;;;;;19.50;7.93;;;;;;;5.13;100.00;101707.16;5096534;28;20059;-53
2022/01/16 06:28:46;;;;;;;17.52;8.15;;;;;;;5.10;100.00;101715.09;5095641;28;20143;-53
2022/01/16 06:31:14;;;;;;;17.92;8.45;;;;;;;5.08;100.00;101708.97;5095624;28;20089;-53
2022/01/16 06:33:42;;;;;;;18.42;8.05;;;;;;;5.10;100.00;101705.44;5095890;28;20056;-54
2022/01/16 06:36:12;;;;;;;14.52;7.78;;;;;;;5.19;100.00;101718.41;5096692;28;20056;-54
2022/01/16 06:38:40;;;;;;;17.75;8.05;;;;;;;5.20;100.00;101721.91;5095815;28;20056;-53
2022/01/16 06:41:10;;;;;;;16.35;7.93;;;;;;;5.24;100.00;101722.69;5095688;28;20056;-54
2022/01/16 06:43:38;;;;;;;18.88;7.75;;;;;;;5.25;100.00;101721.81;5095370;28;20048;-53
2022/01/16 06:46:07;;;;;;;19.05;7.32;;;;;;;5.25;100.00;101727.06;5096054;28;20445;-53
2022/01/16 06:48:35;;;;;;;18.85;9.18;;;;;;;5.27;100.00;101725.28;5095608;28;20071;-53
2022/01/16 06:51:04;;;;;;;15.88;7.63;;;;;;;5.29;100.00;101728.72;5095219;28;20052;-53
2022/01/16 06:53:33;;;;;;;18.80;9.52;;;;;;;5.30;100.00;101730.47;5095502;28;20056;-53
2022/01/16 06:56:03;;;;;;;14.10;7.72;;;;;;;5.25;100.00;101729.72;5095576;28;20064;-53
2022/01/16 06:58:32;;;;;;;15.15;7.53;;;;;;;5.19;100.00;101739.47;5094887;28;20532;-53
2022/01/16 07:01:00;;;;;;;16.15;9.50;;;;;;;5.13;100.00;101731.69;5095356;28;20051;-53
2022/01/16 07:03:28;;;;;;;18.40;8.30;;;;;;;5.08;100.00;101737.91;5095012;28;20123;-54
2022/01/16 07:05:57;;;;;;;17.02;9.30;;;;;;;5.06;100.00;101744.97;5095241;28;20529;-54
2022/01/16 07:08:26;;;;;;;16.25;8.05;;;;;;;5.00;100.00;101751.22;5094574;28;20508;-54
2022/01/16 07:10:56;;;;;;;15.75;8.07;;;;;;;5.00;100.00;101759.09;5094870;28;20062;-54
2022/01/16 07:13:25;;;;;;;18.45;8.23;;;;;;;4.94;100.00;101752.22;5095503;28;20078;-54
2022/01/16 07:15:53;;;;;;;18.85;8.52;;;;;;;4.98;100.00;101758.28;5094911;28;20062;-54
2022/01/16 07:18:21;;;;;;;19.35;8.20;;;;;;;4.91;100.00;101768.03;5095334;28;20467;-54
2022/01/16 07:20:50;;;;;;;15.40;7.75;;;;;;;4.96;100.00;101762.69;5095045;28;20052;-53
2022/01/16 07:23:19;;;;;;;18.70;8.30;;;;;;;4.95;100.00;101763.59;5095560;28;20060;-54
2022/01/16 07:25:48;;;;;;;22.05;10.02;;;;;;;4.93;100.00;101775.91;5095784;28;20060;-53
2022/01/16 07:28:18;;;;;;;20.92;8.32;;;;;;;4.93;100.00;101771.50;5095692;28;20052;-53
2022/01/16 07:30:46;;;;;;;17.92;8.88;;;;;;;4.97;100.00;101772.31;5094887;28;20062;-53
2022/01/16 07:33:15;;;;;;;19.40;9.93;;;;;;;4.92;100.00;101769.75;5095662;28;20052;-54
2022/01/16 07:35:43;;;;;;;16.30;9.15;;;;;;;4.94;100.00;101772.38;5095422;28;20063;-54
2022/01/16 07:38:11;;;;;;;18.65;8.73;;;;;;;4.95;100.00;101784.63;5095011;28;20059;-54
2022/01/16 07:40:39;;;;;;;18.13;9.57;;;;;;;5.01;100.00;101789.78;5094415;28;20537;-54
2022/01/16 07:43:07;;;;;;;19.70;8.82;;;;;;;4.96;100.00;101781.97;5094685;28;20085;-53
2022/01/16 07:45:38;;;;;;;19.60;9.00;;;;;;;4.97;100.00;101780.19;5094216;28;20059;-54
2022/01/16 07:48:07;;;;;;;19.42;9.32;;;;;;;4.91;100.00;101775.03;5094615;28;20063;-54
2022/01/16 07:50:36;;;;;;;18.92;9.30;;;;;;;4.92;100.00;101784.69;5094357;28;20056;-54
2022/01/16 07:53:05;;;;;;;19.55;8.57;;;;;;;4.97;100.00;101772.31;5094563;28;20419;-54
2022/01/16 07:55:33;;;;;;;19.02;8.85;;;;;;;4.99;100.00;101778.41;5095389;28;20070;-53
2022/01/16 07:58:02;;;;;;;18.95;8.82;;;;;;;4.97;100.00;101793.34;5094166;28;20499;-54
2022/01/16 08:00:32;;;;;;;17.60;8.65;;;;;;;5.01;100.00;101792.41;5094728;28;20145;-54
2022/01/16 08:03:02;;;;;;;21.15;9.43;;;;;;;5.13;100.00;101797.44;5094948;28;20461;-54
2022/01/16 08:05:34;;;;;;;20.77;8.90;;;;;;;5.25;100.00;101798.97;5094128;28;20496;-54
2022/01/16 08:08:02;;;;;;;19.65;9.60;;;;;;;5.37;100.00;101809.25;5093774;28;20109;-54
2022/01/16 08:10:31;;;;;;;16.50;8.55;;;;;;;5.43;100.00;101818.81;5094401;28;20052;-54
2022/01/16 08:12:59;;;;;;;20.60;9.18;;;;;;;5.46;100.00;101809.97;5094643;28;20052;-54
2022/01/16 08:15:28;;;;;;;21.77;9.68;;;;;;;5.48;100.00;101801.16;5094059;28;20056;-54
2022/01/16 08:17:56;;;;;;;22.13;9.77;;;;;;;5.45;100.00;101814.38;5093992;28;20056;-54
2022/01/16 08:20:25;;;;;;;18.42;9.00;;;;;;;5.50;100.00;101815.13;5097545;28;20071;-54
2022/01/16 08:22:54;;;;;;;23.73;10.10;;;;;;;5.58;100.00;101818.50;5098908;28;20060;-54
2022/01/16 08:25:22;;;;;;;19.08;9.07;;;;;;;5.61;100.00;101827.22;5098715;28;20091;-54
2022/01/16 08:27:50;;;;;;;17.90;8.43;;;;;;;5.64;100.00;101835.91;5097923;28;20059;-54
2022/01/16 08:30:19;;;;;;;20.48;8.82;;;;;;;5.68;100.00;101834.97;5098287;28;20067;-54
2022/01/16 08:32:47;;;;;;;19.42;8.95;;;;;;;5.66;100.00;101835.88;5097913;28;20067;-54
2022/01/16 08:35:20;;;;;;;21.63;9.60;;;;;;;5.63;100.00;101825.41;5099046;28;20394;-54
2022/01/16 08:37:49;;;;;;;18.77;9.00;;;;;;;5.77;100.00;101849.69;5097930;28;20058;-54
2022/01/16 08:40:18;;;;;;;20.13;9.25;;;;;;;5.76;100.00;101843.53;5098318;28;20051;-54
2022/01/16 08:42:46;;;;;;;15.18;8.48;;;;;;;5.74;100.00;101858.50;5098815;28;20052;-54
2022/01/16 08:45:15;;;;;;;14.60;7.90;;;;;;;5.78;100.00;101867.22;5097657;28;20071;-54
2022/01/16 08:47:43;;;;;;;17.20;8.57;;;;;;;5.82;100.00;101857.50;5097525;28;20056;-54
2022/01/16 08:50:12;;;;;;;20.00;9.05;;;;;;;5.93;100.00;101866.94;5098441;28;20052;-54
2022/01/16 08:52:40;;;;;;;15.75;9.40;;;;;;;6.01;100.00;101879.09;5098080;28;20403;-54
2022/01/16 08:55:11;;;;;;;17.58;9.10;;;;;;;6.02;100.00;101871.16;5098667;28;20056;-54
2022/01/16 08:57:39;;;;;;;19.77;10.13;;;;;;;6.14;100.00;101880.56;5097259;28;20070;-54
2022/01/16 09:00:10;;;;;;;19.20;10.23;;;;;;;6.18;100.00;101882.22;5097342;28;20052;-54
2022/01/16 09:02:38;;;;;;;18.67;9.07;;;;;;;6.21;100.00;101884.78;5097392;28;20052;-54
2022/01/16 09:05:07;;;;;;;16.42;8.30;;;;;;;6.25;100.00;101883.81;5098520;28;20467;-54
2022/01/16 09:07:35;;;;;;;17.02;7.88;;;;;;;6.26;100.00;101869.75;5097768;28;20059;-54
2022/01/16 09:10:05;;;;;;;14.30;8.48;;;;;;;6.23;100.00;101874.22;5097206;28;20495;-54
2022/01/16 09:12:34;;;;;;;21.80;8.43;;;;;;;6.16;100.00;101878.75;5097078;28;20062;-54
2022/01/16 09:15:03;;;;;;;14.48;7.18;;;;;;;6.13;100.00;101878.81;5097776;28;20052;-54
2022/01/16 09:17:31;;;;;;;15.02;7.65;;;;;;;6.18;100.00;101897.16;5097176;28;20427;-54
2022/01/16 09:20:00;;;;;;;14.55;8.48;;;;;;;6.21;100.00;101891.84;5097807;28;20058;-54
2022/01/16 09:22:28;;;;;;;17.23;7.85;;;;;;;6.20;100.00;101912.03;5096985;28;20135;-54
2022/01/16 09:24:56;;;;;;;16.33;8.48;;;;;;;6.21;100.00;101918.19;5097844;28;20388;-54
2022/01/16 09:27:24;;;;;;;16.20;8.77;;;;;;;6.19;100.00;101931.38;5097841;28;20055;-54
2022/01/16 09:29:54;;;;;;;14.05;8.57;;;;;;;6.26;100.00;101924.22;5097711;28;20078;-54
2022/01/16 09:32:22;;;;;;;16.42;9.15;;;;;;;6.27;100.00;101929.47;5097157;28;20056;-54
2022/01/16 09:34:50;;;;;;;20.27;10.02;;;;;;;6.31;100.00;101936.38;5096800;28;20059;-54
2022/01/16 09:37:19;;;;;;;17.80;9.10;;;;;;;6.32;100.00;101938.13;5096726;28;20052;-54
2022/01/16 09:39:47;;;;;;;16.77;9.70;;;;;;;6.35;100.00;101936.31;5096706;28;20442;-54
2022/01/16 09:42:16;;;;;;;20.25;10.20;;;;;;;6.40;100.00;101939.72;5096896;28;20066;-54
2022/01/16 09:44:44;;;;;;;17.83;10.35;;;;;;;6.47;100.00;101941.31;5097575;28;20052;-54
2022/01/16 09:47:14;;;;;;;20.55;11.68;;;;;;;6.45;100.00;101932.59;5097317;28;20059;-54
2022/01/16 09:49:42;;;;;;;20.45;11.02;;;;;;;6.42;100.00;101944.06;5097041;28;20060;-54
2022/01/16 09:52:10;;;;;;;22.27;12.70;;;;;;;6.58;100.00;101939.31;5097543;28;20060;-54
2022/01/16 09:54:39;;;;;;;17.58;9.50;;;;;;;7.75;100.00;101952.25;5096802;28;20403;-54
2022/01/16 09:57:08;;;;;;;23.48;14.27;;;;;;;9.18;100.00;101949.75;5096657;28;20048;-55
2022/01/16 09:59:36;;;;;;;17.27;9.95;;;;;;;10.56;100.00;101961.63;5096568;28;20051;-55
2022/01/16 10:02:05;;;;;;;17.23;9.30;;;;;;;11.74;87.02;101971.81;5096815;28;20489;-55
2022/01/16 10:04:37;;;;;;;12.00;6.70;;;;;;;12.57;80.04;101968.03;5095954;28;20550;-55
2022/01/16 10:07:07;;;;;;;9.65;5.13;;;;;;;13.11;76.45;101980.56;5095770;28;20605;-55
2022/01/16 10:09:36;;;;;;;10.38;5.15;;;;;;;13.66;74.25;101980.47;5096047;28;20063;-55
2022/01/16 10:12:14;;;;;;;9.75;4.55;;;;;;;13.64;73.10;101984.19;5096008;28;20553;-55
2022/01/16 10:14:52;;;;;;;9.50;4.55;;;;;;;13.94;73.11;101979.03;5097057;28;20056;-55
2022/01/16 10:17:26;;;;;;;6.57;3.80;;;;;;;14.94;67.92;101980.72;5096762;28;20056;-56
2022/01/16 10:20:00;;;;;;;6.93;3.60;;;;;;;16.00;62.97;101976.28;5095791;28;20063;-55
2022/01/16 10:22:39;;;;;;;9.02;4.22;;;;;;;16.50;60.08;101980.28;5095556;28;20052;-55
2022/01/16 10:25:08;;;;;;;6.88;4.07;;;;;;;16.44;59.30;101986.00;5096379;28;20056;-55
2022/01/16 10:27:38;;;;;;;6.60;3.75;;;;;;;17.00;59.63;101992.22;5095706;28;20086;-55
2022/01/16 10:30:08;;;;;;;7.55;3.90;;;;;;;16.53;59.36;101998.81;5096824;28;20082;-55
2022/01/16 10:32:38;;;;;;;9.13;3.83;;;;;;;16.82;58.09;101996.09;5096671;28;20068;-55
2022/01/16 10:35:14;;;;;;;7.20;3.72;;;;;;;16.67;58.68;101997.94;5096205;28;20090;-55
2022/01/16 10:37:43;;;;;;;7.28;3.85;;;;;;;17.12;57.22;101995.06;5095968;28;20062;-55
2022/01/16 10:40:15;;;;;;;8.20;3.60;;;;;;;17.62;55.51;101996.16;5095771;28;20055;-56
2022/01/16 10:42:49;;;;;;;9.05;3.53;;;;;;;17.24;55.28;101994.25;5096512;28;20063;-55
2022/01/16 10:45:19;;;;;;;7.10;4.25;;;;;;;18.26;53.33;101995.34;5095374;28;20056;-55
2022/01/16 10:47:51;;;;;;;5.90;3.50;;;;;;;19.06;50.25;101995.81;5095871;28;20067;-55
2022/01/16 10:50:22;;;;;;;6.50;3.42;;;;;;;19.22;49.40;101995.50;5096457;28;20437;-55
2022/01/16 10:52:55;;;;;;;5.25;3.33;;;;;;;19.16;49.45;101995.09;5096084;28;20482;-55
2022/01/16 10:55:26;;;;;;;14.15;3.60;;;;;;;18.94;49.81;101999.38;5096323;28;20399;-55
2022/01/16 10:58:02;;;;;;;11.18;3.85;;;;;;;19.37;49.98;101992.63;5094656;28;20063;-55
2022/01/16 11:00:30;;;;;;;7.53;3.30;;;;;;;20.30;47.34;101992.56;5096253;28;20056;-55
2022/01/16 11:03:02;;;;;;;7.22;3.50;;;;;;;21.09;45.03;101987.03;5094991;28;20135;-55
2022/01/16 11:05:34;;;;;;;;;;;;;;;21.31;44.30;101987.94;5096035;28;20056;-55
2022/01/16 11:08:05;;;;;;;8.15;3.55;;;;;;;20.90;45.20;101989.59;5096060;28;19931;-55
2022/01/16 11:10:34;;;;;;;9.70;3.65;;;;;;;18.31;51.78;101977.94;5094954;28;20052;-55
2022/01/16 11:13:04;;;;;;;8.95;3.63;;;;;;;16.65;57.96;101979.28;5095114;28;20056;-55
2022/01/16 11:15:34;;;;;;;7.70;3.80;;;;;;;15.35;62.90;101969.47;5095988;28;20105;-55
2022/01/16 11:18:02;;;;;;;8.55;3.88;;;;;;;14.54;67.75;101972.25;5094798;28;20064;-55
2022/01/16 11:20:34;;;;;;;11.63;3.70;;;;;;;14.47;69.61;101964.59;5094845;28;20109;-55
2022/01/16 11:25:50;;;;;;;13.13;3.97;;;;;;;14.26;71.96;101971.13;5093983;28;20052;-55
2022/01/16 11:28:19;;;;;;;7.22;3.85;;;;;;;14.18;72.43;101976.00;5094513;28;20056;-55
2022/01/16 11:30:51;;;;;;;11.80;4.80;;;;;;;13.89;74.22;101971.28;5094967;28;20052;-55
2022/01/16 11:33:22;;;;;;;14.15;4.03;;;;;;;13.80;75.02;101970.91;5094275;28;20554;-55
2022/01/16 11:35:53;;;;;;;7.97;4.15;;;;;;;14.42;74.35;101979.97;5095713;28;20056;-55
2022/01/16 11:38:24;;;;;;;8.48;4.22;;;;;;;14.71;71.53;101990.03;5094827;28;20090;-55
2022/01/16 11:40:52;;;;;;;9.77;4.22;;;;;;;14.49;71.93;101996.53;5095032;28;20091;-55
2022/01/16 11:43:37;;;;;;;10.27;4.10;;;;;;;14.04;75.90;101993.63;5094675;28;20067;-54
2022/01/16 11:46:10;;;;;;;9.63;4.20;;;;;;;13.73;77.21;101997.91;5095003;28;20056;-55
2022/01/16 11:48:42;;;;;;;10.52;4.50;;;;;;;13.00;79.15;101992.63;5093995;28;20055;-54
2022/01/16 11:52:05;;;;;;;10.23;4.07;;;;;;;12.73;82.34;101991.31;5094578;28;20056;-54
2022/01/16 11:54:37;;;;;;;6.82;3.50;;;;;;;12.46;83.31;101996.97;5094496;28;20423;-54
2022/01/16 11:57:21;;;;;;;13.43;4.38;;;;;;;12.27;85.18;101989.84;5094275;28;20525;-54
2022/01/16 11:59:51;;;;;;;10.05;4.30;;;;;;;12.17;86.68;101996.53;5093965;28;20066;-54
2022/01/16 12:02:21;;;;;;;10.80;4.68;;;;;;;11.99;87.33;101992.03;5094156;28;20056;-54
2022/01/16 12:04:55;;;;;;;10.18;4.63;;;;;;;11.85;89.21;101992.59;5095326;28;20056;-54
2022/01/16 12:07:49;;;;;;;9.15;5.28;;;;;;;11.73;91.03;101999.31;5094647;28;20073;-54
2022/01/16 12:10:57;;;;;;;19.55;5.80;;;;;;;11.78;91.19;101994.66;5093996;28;20052;-54